Time,TemperatureF,DewpointF,PressureIn,WindDirection,WindDirectionDegrees,WindSpeedMPH,WindSpeedGustMPH,Humidity,HourlyPrecipIn,Conditions,Clouds,dailyrainin,SoftwareType,DateUTC
2013-08-14 00:11:00,78.6,75.0,30.03,SSE,160,0.0,3.0,88,0.00,,,0.00,weatherlink.com 1.10,2013-08-14 04:11:00,
2013-08-14 00:26:00,78.8,75.0,30.03,SSE,160,0.0,1.0,89,0.00,,,0.00,weatherlink.com 1.10,2013-08-14 04:26:00,
2013-08-14 00:41:00,78.7,75.0,30.03,SSE,160,0.0,0.0,89,0.00,,,0.00,weatherlink.com 1.10,2013-08-14 04:41:00,
2013-08-14 00:56:00,78.5,75.0,30.02,SSE,160,2.0,3.0,89,0.00,,,0.00,weatherlink.com 1.10,2013-08-14 04:56:00,
2013-08-14 01:11:00,78.4,75.0,30.02,SSE,160,0.0,0.0,89,0.00,,,0.00,weatherlink.com 1.10,2013-08-14 05:11:00,
2013-08-14 01:27:00,78.1,75.0,30.01,SSE,160,0.0,1.0,90,0.00,,,0.00,weatherlink.com 1.10,2013-08-14 05:27:00,
2013-08-14 01:42:00,77.8,75.0,30.00,SSE,160,0.0,0.0,90,0.00,,,0.00,weatherlink.com 1.10,2013-08-14 05:42:00,
2013-08-14 01:57:00,77.8,75.0,30.00,SSE,160,0.0,3.0,90,0.00,,,0.00,weatherlink.com 1.10,2013-08-14 05:57:00,
2013-08-14 02:12:00,77.8,75.0,30.01,SSE,160,1.0,4.0,90,0.00,,,0.00,weatherlink.com 1.10,2013-08-14 06:12:00,
2013-08-14 02:27:00,77.6,75.0,30.00,SSE,160,0.0,1.0,90,0.00,,,0.00,weatherlink.com 1.10,2013-08-14 06:27:00,
2013-08-14 02:42:00,77.1,74.0,29.99,SSE,160,0.0,0.0,90,0.00,,,0.00,weatherlink.com 1.10,2013-08-14 06:42:00,
2013-08-14 02:57:00,76.8,74.0,29.99,SSE,160,2.0,3.0,91,0.00,,,0.00,weatherlink.com 1.10,2013-08-14 06:57:00,
2013-08-14 03:12:00,76.6,74.0,29.99,SSE,160,0.0,0.0,91,0.00,,,0.00,weatherlink.com 1.10,2013-08-14 07:12:00,
2013-08-14 03:27:00,76.4,74.0,29.99,SSE,160,0.0,2.0,91,0.00,,,0.00,weatherlink.com 1.10,2013-08-14 07:27:00,
2013-08-14 03:42:00,76.2,74.0,29.98,SSE,160,0.0,2.0,91,0.00,,,0.00,weatherlink.com 1.10,2013-08-14 07:42:00,
2013-08-14 03:57:00,75.9,74.0,29.98,SSE,160,0.0,2.0,92,0.00,,,0.00,weatherlink.com 1.10,2013-08-14 07:57:00,
2013-08-14 04:12:00,75.8,73.0,29.98,SSE,160,0.0,0.0,92,0.00,,,0.00,weatherlink.com 1.10,2013-08-14 08:12:00,
2013-08-14 04:27:00,75.8,73.0,29.98,SSE,160,2.0,3.0,92,0.00,,,0.00,weatherlink.com 1.10,2013-08-14 08:27:00,
2013-08-14 04:42:00,75.7,73.0,29.98,SSE,160,0.0,4.0,92,0.00,,,0.00,weatherlink.com 1.10,2013-08-14 08:42:00,
2013-08-14 04:57:00,75.5,73.0,29.98,SSE,160,0.0,1.0,92,0.00,,,0.00,weatherlink.com 1.10,2013-08-14 08:57:00,
2013-08-14 05:12:00,75.3,73.0,29.98,SSE,160,0.0,3.0,92,0.00,,,0.00,weatherlink.com 1.10,2013-08-14 09:12:00,
2013-08-14 05:27:00,75.2,73.0,29.98,SSE,160,2.0,3.0,92,0.00,,,0.00,weatherlink.com 1.10,2013-08-14 09:27:00,
2013-08-14 05:42:00,75.3,73.0,29.98,SSE,160,0.0,2.0,93,0.00,,,0.00,weatherlink.com 1.10,2013-08-14 09:42:00,
2013-08-14 05:57:00,75.3,73.0,29.98,SSE,160,1.0,3.0,93,0.00,,,0.00,weatherlink.com 1.10,2013-08-14 09:57:00,
2013-08-14 06:12:00,75.3,73.0,29.98,SSE,160,0.0,1.0,93,0.00,,,0.00,weatherlink.com 1.10,2013-08-14 10:12:00,
2013-08-14 06:27:00,75.1,73.0,29.98,SSE,160,0.0,0.0,93,0.00,,,0.00,weatherlink.com 1.10,2013-08-14 10:27:00,
2013-08-14 06:42:00,75.2,73.0,29.99,SSE,160,0.0,0.0,94,0.00,,,0.00,weatherlink.com 1.10,2013-08-14 10:42:00,
2013-08-14 06:57:00,75.4,73.0,29.99,SSE,160,0.0,0.0,93,0.00,,,0.00,weatherlink.com 1.10,2013-08-14 10:57:00,
2013-08-14 07:12:00,75.4,73.0,29.99,SSE,160,0.0,0.0,93,0.00,,,0.00,weatherlink.com 1.10,2013-08-14 11:12:00,
2013-08-14 07:27:00,75.7,74.0,29.99,SSE,160,0.0,1.0,94,0.00,,,0.00,weatherlink.com 1.10,2013-08-14 11:27:00,
2013-08-14 07:42:00,75.9,74.0,29.99,SSE,160,0.0,1.0,94,0.00,,,0.00,weatherlink.com 1.10,2013-08-14 11:42:00,
2013-08-14 07:57:00,76.4,75.0,29.99,SSE,160,1.0,4.0,94,0.00,,,0.00,weatherlink.com 1.10,2013-08-14 11:57:00,
2013-08-14 08:12:00,77.1,75.0,29.98,SSE,155,1.0,4.0,94,0.00,,,0.00,weatherlink.com 1.10,2013-08-14 12:12:00,
2013-08-14 08:27:00,77.9,76.0,29.99,East,99,5.0,6.0,94,0.00,,,0.00,weatherlink.com 1.10,2013-08-14 12:27:00,
2013-08-14 08:42:00,78.9,77.0,29.99,ENE,74,4.0,7.0,94,0.00,,,0.00,weatherlink.com 1.10,2013-08-14 12:42:00,
2013-08-14 08:57:00,79.7,78.0,29.99,ENE,58,4.0,8.0,93,0.00,,,0.00,weatherlink.com 1.10,2013-08-14 12:57:00,
2013-08-14 09:12:00,80.6,78.0,29.98,ESE,114,0.0,8.0,92,0.00,,,0.00,weatherlink.com 1.10,2013-08-14 13:12:00,
2013-08-14 09:27:00,81.1,78.0,29.99,ESE,108,0.0,6.0,91,0.00,,,0.00,weatherlink.com 1.10,2013-08-14 13:27:00,
2013-08-14 09:42:00,81.8,79.0,29.99,SE,129,2.0,6.0,90,0.00,,,0.00,weatherlink.com 1.10,2013-08-14 13:42:00,
2013-08-14 09:57:00,82.6,79.0,29.99,SE,128,6.0,9.0,88,0.00,,,0.00,weatherlink.com 1.10,2013-08-14 13:57:00,
2013-08-14 10:12:00,83.0,78.0,29.99,SSE,147,8.0,11.0,85,0.00,,,0.00,weatherlink.com 1.10,2013-08-14 14:12:00,
2013-08-14 10:27:00,83.7,78.0,29.99,East,101,7.0,10.0,83,0.00,,,0.00,weatherlink.com 1.10,2013-08-14 14:27:00,
2013-08-14 10:42:00,84.5,78.0,29.99,East,79,4.0,7.0,81,0.00,,,0.00,weatherlink.com 1.10,2013-08-14 14:42:00,
2013-08-14 10:57:00,85.3,78.0,29.99,SSE,151,8.0,9.0,79,0.00,,,0.00,weatherlink.com 1.10,2013-08-14 14:57:00,
2013-08-14 11:12:00,85.3,78.0,29.99,ESE,120,8.0,10.0,78,0.00,,,0.00,weatherlink.com 1.10,2013-08-14 15:12:00,
2013-08-14 11:28:00,86.0,77.0,29.99,SSE,162,5.0,10.0,75,0.00,,,0.00,weatherlink.com 1.10,2013-08-14 15:28:00,
2013-08-14 11:43:00,86.4,78.0,30.00,SE,129,7.0,9.0,75,0.00,,,0.00,weatherlink.com 1.10,2013-08-14 15:43:00,
2013-08-14 11:58:00,88.0,78.0,30.00,East,101,0.0,9.0,72,0.00,,,0.00,weatherlink.com 1.10,2013-08-14 15:58:00,
2013-08-14 12:13:00,88.6,77.0,30.00,ESE,122,6.0,10.0,69,0.01,,,0.01,weatherlink.com 1.10,2013-08-14 16:13:00,
2013-08-14 12:28:00,88.9,76.0,30.00,South,175,12.0,12.0,66,0.01,,,0.01,weatherlink.com 1.10,2013-08-14 16:28:00,
2013-08-14 12:43:00,88.6,75.0,30.00,SSE,151,6.0,11.0,65,0.01,,,0.01,weatherlink.com 1.10,2013-08-14 16:43:00,
2013-08-14 12:58:00,89.1,76.0,30.00,South,180,6.0,10.0,66,0.01,,,0.01,weatherlink.com 1.10,2013-08-14 16:58:00,
2013-08-14 13:13:00,89.4,78.0,29.99,South,185,12.0,15.0,69,0.00,,,0.01,weatherlink.com 1.10,2013-08-14 17:13:00,
2013-08-14 13:28:00,88.4,78.0,29.98,WSW,238,5.0,15.0,71,0.00,,,0.01,weatherlink.com 1.10,2013-08-14 17:28:00,
2013-08-14 13:43:00,88.4,79.0,29.98,SSW,209,10.0,18.0,73,0.00,,,0.01,weatherlink.com 1.10,2013-08-14 17:43:00,
2013-08-14 13:58:00,87.9,78.0,29.97,SW,216,12.0,15.0,73,0.00,,,0.01,weatherlink.com 1.10,2013-08-14 17:58:00,
2013-08-14 14:28:00,88.6,78.0,29.97,SW,215,10.0,13.0,71,0.00,,,0.01,weatherlink.com 1.10,2013-08-14 18:28:00,
2013-08-14 14:43:00,89.1,79.0,29.96,SSW,210,8.0,13.0,71,0.00,,,0.01,weatherlink.com 1.10,2013-08-14 18:43:00,
2013-08-14 14:58:00,89.1,78.0,29.96,South,190,10.0,13.0,70,0.00,,,0.01,weatherlink.com 1.10,2013-08-14 18:58:00,
2013-08-14 15:13:00,89.1,78.0,29.95,SSW,204,12.0,20.0,70,0.00,,,0.01,weatherlink.com 1.10,2013-08-14 19:13:00,
2013-08-14 15:28:00,89.2,79.0,29.95,SW,218,11.0,16.0,71,0.00,,,0.01,weatherlink.com 1.10,2013-08-14 19:28:00,
2013-08-14 15:43:00,89.0,78.0,29.94,SSW,212,10.0,16.0,69,0.00,,,0.01,weatherlink.com 1.10,2013-08-14 19:43:00,
2013-08-14 15:58:00,89.1,78.0,29.94,SW,226,7.0,15.0,70,0.00,,,0.01,weatherlink.com 1.10,2013-08-14 19:58:00,
2013-08-14 16:13:00,88.3,77.0,29.94,SW,219,7.0,15.0,70,0.00,,,0.01,weatherlink.com 1.10,2013-08-14 20:13:00,
2013-08-14 16:28:00,88.6,78.0,29.94,West,266,7.0,14.0,71,0.00,,,0.01,weatherlink.com 1.10,2013-08-14 20:28:00,
2013-08-14 16:43:00,89.0,78.0,29.94,SW,216,7.0,15.0,71,0.00,,,0.01,weatherlink.com 1.10,2013-08-14 20:43:00,
2013-08-14 16:58:00,89.4,79.0,29.94,SW,215,7.0,13.0,71,0.00,,,0.01,weatherlink.com 1.10,2013-08-14 20:58:00,
2013-08-14 17:13:00,89.3,79.0,29.93,WSW,239,8.0,12.0,71,0.00,,,0.01,weatherlink.com 1.10,2013-08-14 21:13:00,
2013-08-14 17:28:00,89.2,78.0,29.93,WSW,250,11.0,14.0,70,0.00,,,0.01,weatherlink.com 1.10,2013-08-14 21:28:00,
2013-08-14 17:43:00,88.6,79.0,29.93,SSW,211,5.0,13.0,72,0.00,,,0.01,weatherlink.com 1.10,2013-08-14 21:43:00,
2013-08-14 17:58:00,88.8,78.0,29.93,SW,217,4.0,12.0,71,0.00,,,0.01,weatherlink.com 1.10,2013-08-14 21:58:00,
2013-08-14 18:13:00,88.4,79.0,29.94,SW,220,5.0,12.0,73,0.00,,,0.01,weatherlink.com 1.10,2013-08-14 22:13:00,
2013-08-14 18:43:00,81.5,74.0,29.96,ENE,74,0.0,21.0,77,0.01,,,0.02,weatherlink.com 1.10,2013-08-14 22:43:00,
2013-08-14 19:13:00,81.4,75.0,29.95,North,358,0.0,3.0,82,0.01,,,0.02,weatherlink.com 1.10,2013-08-14 23:13:00,
2013-08-14 19:28:00,81.7,76.0,29.95,North,358,0.0,4.0,82,0.01,,,0.02,weatherlink.com 1.10,2013-08-14 23:28:00,
2013-08-14 19:43:00,82.5,77.0,29.96,NE,54,0.0,1.0,82,0.00,,,0.02,weatherlink.com 1.10,2013-08-14 23:43:00,
2013-08-14 19:58:00,82.8,76.0,29.96,North,360,0.0,3.0,81,0.00,,,0.02,weatherlink.com 1.10,2013-08-14 23:58:00,
2013-08-14 20:13:00,82.7,77.0,29.96,North,360,0.0,4.0,82,0.00,,,0.02,weatherlink.com 1.10,2013-08-15 00:13:00,
2013-08-14 20:28:00,81.8,76.0,29.97,NW,318,1.0,6.0,81,0.00,,,0.02,weatherlink.com 1.10,2013-08-15 00:28:00,
2013-08-14 20:43:00,81.8,76.0,29.98,NW,318,0.0,0.0,81,0.00,,,0.02,weatherlink.com 1.10,2013-08-15 00:43:00,
2013-08-14 20:58:00,82.0,76.0,29.98,NW,318,0.0,4.0,83,0.00,,,0.02,weatherlink.com 1.10,2013-08-15 00:58:00,
2013-08-14 21:13:00,81.8,77.0,29.99,NW,318,1.0,2.0,85,0.00,,,0.02,weatherlink.com 1.10,2013-08-15 01:13:00,
2013-08-14 21:28:00,81.6,77.0,29.99,NW,318,0.0,2.0,85,0.00,,,0.02,weatherlink.com 1.10,2013-08-15 01:28:00,
2013-08-14 21:43:00,81.6,77.0,30.00,NW,318,0.0,0.0,86,0.00,,,0.02,weatherlink.com 1.10,2013-08-15 01:43:00,
2013-08-14 21:58:00,81.4,77.0,30.01,ENE,74,7.0,9.0,86,0.00,,,0.02,weatherlink.com 1.10,2013-08-15 01:58:00,
2013-08-14 22:13:00,80.6,75.0,30.02,SSE,157,13.0,18.0,84,0.00,,,0.02,weatherlink.com 1.10,2013-08-15 02:13:00,
2013-08-14 22:28:00,79.0,74.0,30.04,SSE,149,13.0,18.0,85,0.00,,,0.02,weatherlink.com 1.10,2013-08-15 02:28:00,
2013-08-14 22:43:00,77.0,73.0,30.04,SSE,160,5.0,13.0,87,0.00,,,0.02,weatherlink.com 1.10,2013-08-15 02:43:00,
2013-08-14 22:58:00,76.5,73.0,30.03,West,264,3.0,7.0,88,0.00,,,0.02,weatherlink.com 1.10,2013-08-15 02:58:00,
2013-08-14 23:13:00,76.5,73.0,30.03,WSW,256,3.0,4.0,89,0.00,,,0.02,weatherlink.com 1.10,2013-08-15 03:13:00,
2013-08-14 23:28:00,76.4,73.0,30.03,WSW,254,0.0,4.0,89,0.00,,,0.02,weatherlink.com 1.10,2013-08-15 03:28:00,
2013-08-14 23:43:00,76.2,73.0,30.02,WSW,254,3.0,4.0,90,0.00,,,0.02,weatherlink.com 1.10,2013-08-15 03:43:00,
2013-08-14 23:58:00,76.5,74.0,30.02,WSW,254,1.0,3.0,90,0.00,,,0.02,weatherlink.com 1.10,2013-08-15 03:58:00,